createdAt,value
2019-02-15T00:00:14.488Z,5.90
2019-02-15T00:02:42.912Z,5.93
2019-02-15T00:05:11.358Z,5.93
2019-02-15T00:07:39.781Z,5.33
2019-02-15T00:10:08.235Z,5.50
2019-02-15T00:12:36.661Z,5.70
2019-02-15T00:15:06.558Z,6.03
2019-02-15T00:17:51.713Z,5.73
2019-02-15T00:20:21.871Z,4.77
2019-02-15T00:22:50.286Z,5.37
2019-02-15T00:25:18.738Z,5.03
2019-02-15T00:27:47.239Z,5.30
2019-02-15T00:30:15.694Z,4.73
2019-02-15T00:32:44.113Z,4.97
2019-02-15T00:35:12.643Z,5.07
2019-02-15T00:37:41.062Z,4.87
2019-02-15T00:40:09.575Z,5.07
2019-02-15T00:42:38.009Z,5.07
2019-02-15T00:45:07.384Z,4.80
2019-02-15T00:47:40.142Z,5.07
2019-02-15T00:52:51.902Z,5.33
2019-02-15T00:55:21.990Z,5.77
2019-02-15T00:57:52.058Z,5.43
2019-02-15T01:00:38.290Z,5.60
2019-02-15T01:03:08.366Z,5.07
2019-02-15T01:05:38.457Z,5.13
2019-02-15T01:08:17.854Z,5.90
2019-02-15T01:10:50.373Z,5.60
2019-02-15T01:13:18.876Z,5.10
2019-02-15T01:15:47.336Z,5.90
2019-02-15T01:18:15.759Z,5.23
2019-02-15T01:20:44.212Z,5.30
2019-02-15T01:23:12.643Z,5.40
2019-02-15T01:25:42.732Z,5.23
2019-02-15T01:28:15.402Z,5.27
2019-02-15T01:30:48.446Z,5.67
2019-02-15T01:33:30.836Z,5.80
2019-02-15T01:36:19.340Z,6.00
2019-02-15T01:38:52.115Z,6.00
2019-02-15T01:41:22.210Z,6.00
2019-02-15T01:44:01.325Z,5.73
2019-02-15T01:46:31.490Z,6.30
2019-02-15T01:48:59.913Z,5.70
2019-02-15T01:51:28.361Z,5.93
2019-02-15T01:53:56.787Z,6.17
2019-02-15T01:56:25.234Z,6.10
2019-02-15T01:58:53.656Z,5.53
2019-02-15T02:01:28.405Z,5.00
2019-02-15T02:03:57.313Z,5.30
2019-02-15T02:06:25.731Z,4.40
2019-02-15T02:08:54.259Z,4.80
2019-02-15T02:11:22.688Z,4.93
2019-02-15T02:13:51.212Z,5.30
2019-02-15T02:16:19.635Z,4.97
2019-02-15T02:18:48.095Z,4.87
2019-02-15T02:21:16.524Z,7.10
2019-02-15T02:23:44.978Z,4.90
2019-02-15T02:26:13.396Z,5.20
2019-02-15T02:28:41.839Z,5.40
2019-02-15T02:31:10.342Z,5.90
2019-02-15T02:33:38.804Z,5.60
2019-02-15T02:36:07.235Z,6.00
2019-02-15T02:38:35.701Z,6.37
2019-02-15T02:41:04.185Z,6.10
2019-02-15T02:43:32.634Z,6.53
2019-02-15T02:46:01.050Z,6.37
2019-02-15T02:48:29.500Z,5.57
2019-02-15T02:50:57.925Z,5.80
2019-02-15T02:53:26.391Z,7.00
2019-02-15T02:55:54.817Z,5.90
2019-02-15T02:58:23.260Z,6.47
2019-02-15T03:00:51.682Z,6.70
2019-02-15T03:03:20.159Z,7.10
2019-02-15T03:05:48.648Z,6.37
2019-02-15T03:08:17.096Z,6.50
2019-02-15T03:10:45.524Z,6.63
2019-02-15T03:13:14.047Z,6.63
2019-02-15T03:15:42.561Z,5.93
2019-02-15T03:18:11.034Z,6.17
2019-02-15T03:20:39.462Z,5.80
2019-02-15T03:23:07.905Z,5.93
2019-02-15T03:25:36.344Z,5.80
2019-02-15T03:28:04.828Z,5.87
2019-02-15T03:30:33.343Z,6.10
2019-02-15T03:33:01.758Z,6.13
2019-02-15T03:35:30.205Z,5.80
2019-02-15T03:38:00.353Z,5.90
2019-02-15T03:40:30.522Z,5.20
2019-02-15T03:42:58.966Z,6.27
2019-02-15T03:45:27.438Z,5.20
2019-02-15T03:47:55.867Z,6.10
2019-02-15T03:50:24.371Z,6.70
2019-02-15T03:52:52.764Z,5.87
2019-02-15T03:55:21.222Z,6.63
2019-02-15T03:57:49.727Z,6.43
2019-02-15T04:00:18.196Z,6.23
2019-02-15T04:02:46.615Z,6.10
2019-02-15T04:05:15.068Z,6.17
2019-02-15T04:07:43.503Z,6.00
2019-02-15T04:10:12.025Z,5.53
2019-02-15T04:12:40.530Z,6.50
2019-02-15T04:15:09.071Z,6.77
2019-02-15T04:17:37.508Z,6.10
2019-02-15T04:20:08.627Z,5.90
2019-02-15T04:22:37.058Z,6.10
2019-02-15T04:25:06.360Z,6.30
2019-02-15T04:27:34.797Z,6.33
2019-02-15T04:30:03.345Z,5.67
2019-02-15T04:32:31.792Z,6.30
2019-02-15T04:35:00.315Z,5.30
2019-02-15T04:37:28.762Z,6.27
2019-02-15T04:39:57.194Z,5.37
2019-02-15T04:42:25.719Z,5.80
2019-02-15T04:44:54.157Z,5.70
2019-02-15T04:47:22.609Z,5.20
2019-02-15T04:49:51.351Z,6.10
2019-02-15T04:52:19.807Z,5.40
2019-02-15T04:54:48.224Z,5.43
2019-02-15T04:57:16.685Z,5.40
2019-02-15T04:59:45.104Z,6.40
2019-02-15T05:02:13.563Z,5.97
2019-02-15T05:04:42.364Z,5.67
2019-02-15T05:07:10.816Z,5.80
2019-02-15T05:09:39.230Z,5.80
2019-02-15T05:12:07.684Z,5.17
2019-02-15T05:14:36.111Z,5.70
2019-02-15T05:17:04.569Z,6.40
2019-02-15T05:19:32.980Z,6.13
2019-02-15T05:22:01.440Z,5.90
2019-02-15T05:24:29.856Z,5.87
2019-02-15T05:26:58.323Z,6.27
2019-02-15T05:29:26.745Z,5.40
2019-02-15T05:31:55.198Z,5.70
2019-02-15T05:34:23.611Z,5.50
2019-02-15T05:36:52.080Z,5.20
2019-02-15T05:39:20.487Z,6.07
2019-02-15T05:41:48.939Z,5.73
2019-02-15T05:44:17.367Z,5.90
2019-02-15T05:46:45.814Z,5.43
2019-02-15T05:49:14.246Z,6.30
2019-02-15T05:51:42.691Z,6.53
2019-02-15T05:54:11.137Z,6.33
2019-02-15T05:56:39.641Z,5.60
2019-02-15T05:59:08.061Z,5.27
2019-02-15T06:01:36.686Z,5.50
2019-02-15T06:04:05.186Z,5.57
2019-02-15T06:06:33.652Z,6.10
2019-02-15T06:09:02.069Z,6.13
2019-02-15T06:11:30.484Z,5.90
2019-02-15T06:13:58.934Z,6.03
2019-02-15T06:16:27.363Z,5.47
2019-02-15T06:18:55.804Z,5.60
2019-02-15T06:21:24.231Z,6.17
2019-02-15T06:23:52.680Z,6.10
2019-02-15T06:26:21.092Z,6.20
2019-02-15T06:28:49.550Z,6.27
2019-02-15T06:31:18.056Z,5.20
2019-02-15T06:33:46.491Z,6.40
2019-02-15T06:36:14.912Z,6.53
2019-02-15T06:38:43.365Z,6.93
2019-02-15T06:41:12.537Z,8.47
2019-02-15T06:43:41.118Z,7.17
2019-02-15T06:46:09.549Z,8.60
2019-02-15T06:48:38.006Z,8.00
2019-02-15T06:51:06.432Z,7.33
2019-02-15T06:53:34.882Z,7.50
2019-02-15T06:56:03.301Z,7.60
2019-02-15T06:58:31.915Z,6.63
2019-02-15T07:01:07.777Z,6.40
2019-02-15T07:03:40.621Z,5.83
2019-02-15T07:06:09.051Z,6.73
2019-02-15T07:08:37.501Z,6.33
2019-02-15T07:11:05.931Z,6.67
2019-02-15T07:13:34.385Z,6.30
2019-02-15T07:16:02.811Z,6.53
2019-02-15T07:18:31.268Z,7.20
2019-02-15T07:20:59.681Z,6.40
2019-02-15T07:23:28.112Z,6.03
2019-02-15T07:25:56.572Z,7.47
2019-02-15T07:28:25.005Z,6.60
2019-02-15T07:30:53.460Z,7.17
2019-02-15T07:33:21.891Z,7.27
2019-02-15T07:35:50.342Z,6.90
2019-02-15T07:38:18.758Z,6.60
2019-02-15T07:40:47.205Z,7.30
2019-02-15T07:43:15.636Z,7.57
2019-02-15T07:45:44.086Z,7.47
2019-02-15T07:48:12.515Z,7.30
2019-02-15T07:50:40.966Z,6.73
2019-02-15T07:53:09.409Z,7.10
2019-02-15T07:55:37.850Z,7.33
2019-02-15T07:58:06.278Z,7.80
2019-02-15T08:00:34.744Z,7.00
2019-02-15T08:03:03.174Z,6.97
2019-02-15T08:05:31.635Z,7.70
2019-02-15T08:08:00.043Z,7.00
2019-02-15T08:10:28.499Z,7.93
2019-02-15T08:12:56.928Z,7.40
2019-02-15T08:15:25.371Z,7.30
2019-02-15T08:17:53.793Z,8.00
2019-02-15T08:20:22.241Z,7.83
2019-02-15T08:22:50.656Z,7.70
2019-02-15T08:25:19.110Z,8.30
2019-02-15T08:27:47.533Z,8.10
2019-02-15T08:30:15.976Z,8.20
2019-02-15T08:32:44.403Z,8.60
2019-02-15T08:35:12.820Z,8.07
2019-02-15T08:37:41.266Z,8.07
2019-02-15T08:40:11.217Z,8.47
2019-02-15T08:42:39.659Z,7.70
2019-02-15T08:45:10.928Z,8.17
2019-02-15T08:47:39.882Z,7.77
2019-02-15T08:50:10.979Z,8.00
2019-02-15T08:52:39.498Z,8.47
2019-02-15T08:55:10.168Z,9.50
2019-02-15T08:57:38.610Z,9.20
2019-02-15T09:00:09.841Z,9.30
2019-02-15T09:02:38.363Z,9.00
2019-02-15T09:05:09.327Z,9.20
2019-02-15T09:07:37.828Z,9.13
2019-02-15T09:10:11.788Z,9.60
2019-02-15T09:12:40.239Z,9.50
2019-02-15T09:15:11.669Z,9.63
2019-02-15T09:17:40.213Z,9.70
2019-02-15T09:20:11.062Z,11.30
2019-02-15T09:22:39.525Z,11.20
2019-02-15T09:25:10.011Z,11.40
2019-02-15T09:27:40.083Z,10.80
2019-02-15T09:30:11.682Z,10.63
2019-02-15T09:32:40.137Z,10.43
2019-02-15T09:35:11.095Z,10.13
2019-02-15T09:37:39.686Z,10.27
2019-02-15T09:40:09.750Z,9.77
2019-02-15T09:42:38.197Z,10.30
2019-02-15T09:45:10.264Z,10.13
2019-02-15T09:47:38.716Z,9.80
2019-02-15T09:50:10.190Z,9.07
2019-02-15T09:52:39.557Z,9.27
2019-02-15T09:55:08.091Z,8.60
2019-02-15T09:57:36.598Z,9.07
2019-02-15T10:00:08.107Z,8.50
2019-02-15T10:02:36.514Z,9.10
2019-02-15T10:05:06.893Z,8.50
2019-02-15T10:07:35.313Z,8.27
2019-02-15T10:10:04.303Z,8.73
2019-02-15T10:12:32.718Z,8.70
2019-02-15T10:15:01.177Z,7.97
2019-02-15T10:17:29.593Z,6.97
2019-02-15T10:19:58.042Z,7.60
2019-02-15T10:22:26.455Z,7.00
2019-02-15T10:24:56.862Z,7.27
2019-02-15T10:27:29.556Z,7.67
2019-02-15T10:29:59.298Z,7.33
2019-02-15T10:32:29.541Z,7.67
2019-02-15T10:34:57.986Z,7.50
2019-02-15T10:37:30.490Z,6.80
2019-02-15T10:39:59.100Z,7.50
2019-02-15T10:42:29.502Z,7.70
2019-02-15T10:45:00.851Z,7.13
2019-02-15T10:47:30.878Z,7.77
2019-02-15T10:50:00.306Z,7.47
2019-02-15T10:52:30.616Z,7.37
2019-02-15T10:55:00.799Z,7.33
2019-02-15T10:57:34.702Z,6.87
2019-02-15T11:00:14.491Z,7.10
2019-02-15T11:02:43.641Z,7.23
2019-02-15T11:05:14.669Z,7.50
2019-02-15T11:07:46.268Z,6.90
2019-02-15T11:10:18.818Z,7.03
2019-02-15T11:12:48.950Z,7.10
2019-02-15T11:15:18.954Z,7.37
2019-02-15T11:20:39.376Z,7.17
2019-02-15T11:23:09.925Z,7.23
2019-02-15T11:25:39.921Z,7.90
2019-02-15T11:28:10.847Z,7.00
2019-02-15T11:30:40.780Z,7.17
2019-02-15T11:33:11.087Z,7.10
2019-02-15T11:35:39.811Z,6.63
2019-02-15T11:38:11.329Z,7.07
2019-02-15T11:40:40.811Z,6.97
2019-02-15T11:43:10.186Z,7.50
2019-02-15T11:45:39.471Z,6.90
2019-02-15T11:48:10.516Z,7.00
2019-02-15T11:50:43.746Z,6.10
2019-02-15T11:53:12.927Z,6.43
2019-02-15T11:55:42.593Z,6.80
2019-02-15T11:58:13.534Z,6.80
2019-02-15T12:00:41.983Z,6.93
2019-02-15T12:03:13.785Z,6.13
2019-02-15T12:05:43.318Z,5.80
2019-02-15T12:08:14.105Z,5.97
2019-02-15T12:10:45.090Z,6.00
2019-02-15T12:13:24.150Z,5.63
2019-02-15T12:15:55.982Z,6.17
2019-02-15T12:18:24.564Z,5.50
2019-02-15T12:20:55.685Z,4.93
2019-02-15T12:23:24.597Z,4.80
2019-02-15T12:25:55.014Z,5.53
2019-02-15T12:28:24.331Z,4.90
2019-02-15T12:30:54.398Z,4.27
2019-02-15T12:33:24.332Z,5.00
2019-02-15T12:35:55.256Z,5.40
2019-02-15T12:38:24.042Z,5.20
2019-02-15T12:40:55.043Z,4.20
2019-02-15T12:43:25.124Z,4.13
2019-02-15T12:45:53.784Z,3.90
2019-02-15T12:48:23.264Z,4.50
2019-02-15T12:50:58.115Z,4.90
2019-02-15T12:53:27.494Z,4.80
2019-02-15T12:55:56.225Z,4.60
2019-02-15T12:58:25.672Z,4.30
2019-02-15T13:00:55.688Z,4.50
2019-02-15T13:03:26.035Z,4.40
2019-02-15T13:06:08.381Z,4.63
2019-02-15T13:08:36.825Z,4.50
2019-02-15T13:11:10.358Z,4.90
2019-02-15T13:13:41.254Z,5.17
2019-02-15T13:16:12.061Z,5.17
2019-02-15T13:18:40.983Z,5.90
2019-02-15T13:21:14.168Z,5.00
2019-02-15T13:23:48.859Z,5.53
2019-02-15T13:26:20.130Z,5.07
2019-02-15T13:28:51.330Z,5.40
2019-02-15T13:31:23.156Z,5.30
2019-02-15T13:33:57.061Z,5.43
2019-02-15T13:36:25.783Z,5.33
2019-02-15T13:38:55.973Z,5.20
2019-02-15T13:41:28.414Z,4.90
2019-02-15T13:43:58.353Z,5.00
2019-02-15T13:46:33.173Z,4.97
2019-02-15T13:49:01.459Z,4.20
2019-02-15T13:51:34.650Z,4.10
2019-02-15T13:54:03.950Z,3.77
2019-02-15T13:56:36.726Z,4.60
2019-02-15T13:59:07.584Z,4.10
2019-02-15T14:01:38.209Z,4.40
2019-02-15T14:04:07.635Z,4.33
2019-02-15T14:06:35.900Z,4.00
2019-02-15T14:09:05.888Z,4.03
2019-02-15T14:11:36.294Z,4.40
2019-02-15T14:14:07.302Z,4.50
2019-02-15T14:16:41.368Z,4.60
2019-02-15T14:19:11.463Z,4.83
2019-02-15T14:21:44.626Z,4.37
2019-02-15T14:24:13.812Z,4.53
2019-02-15T14:26:44.938Z,3.90
2019-02-15T14:29:15.202Z,3.93
2019-02-15T14:31:47.383Z,4.40
2019-02-15T14:34:21.342Z,3.60
2019-02-15T14:36:52.957Z,4.03
2019-02-15T14:39:21.537Z,3.90
2019-02-15T14:41:53.436Z,4.20
2019-02-15T14:44:23.472Z,4.50
2019-02-15T14:46:54.629Z,4.60
2019-02-15T14:49:25.648Z,4.77
2019-02-15T14:51:56.883Z,5.17
2019-02-15T14:54:28.130Z,5.07
2019-02-15T14:56:57.016Z,4.90
2019-02-15T14:59:26.392Z,4.93
2019-02-15T15:01:58.198Z,5.40
2019-02-15T15:04:32.260Z,5.40
2019-02-15T15:07:02.730Z,5.60
2019-02-15T15:09:35.437Z,5.97
2019-02-15T15:12:06.794Z,4.97
2019-02-15T15:14:37.021Z,5.50
2019-02-15T15:17:09.734Z,5.03
2019-02-15T15:19:42.227Z,6.20
2019-02-15T15:22:16.293Z,5.27
2019-02-15T15:24:46.739Z,5.70
2019-02-15T15:27:17.745Z,5.73
2019-02-15T15:29:46.170Z,5.70
2019-02-15T15:32:16.159Z,5.20
2019-02-15T15:34:46.565Z,6.03
2019-02-15T15:37:20.205Z,5.40
2019-02-15T15:39:51.164Z,6.13
2019-02-15T15:42:23.441Z,5.80
2019-02-15T15:44:51.872Z,5.90
2019-02-15T15:47:21.639Z,5.40
2019-02-15T15:49:50.057Z,5.40
2019-02-15T15:52:19.471Z,5.07
2019-02-15T15:54:48.274Z,5.90
2019-02-15T15:57:18.754Z,5.50
2019-02-15T15:59:47.351Z,6.03
2019-02-15T16:02:18.558Z,5.23
2019-02-15T16:04:49.307Z,4.90
2019-02-15T16:07:21.361Z,5.03
2019-02-15T16:09:52.433Z,4.70
2019-02-15T16:12:23.695Z,4.73
2019-02-15T16:14:53.340Z,4.70
2019-02-15T16:17:23.547Z,4.40
2019-02-15T16:19:55.107Z,4.90
2019-02-15T16:22:31.612Z,5.17
2019-02-15T16:25:02.815Z,5.10
2019-02-15T16:27:33.862Z,4.03
2019-02-15T16:30:05.254Z,4.80
2019-02-15T16:32:36.324Z,4.73
2019-02-15T16:35:10.207Z,4.50
2019-02-15T16:37:40.084Z,4.50
2019-02-15T16:40:12.142Z,4.70
2019-02-15T16:42:45.544Z,4.60
2019-02-15T16:45:19.182Z,4.70
2019-02-15T16:47:51.242Z,4.97
2019-02-15T16:50:21.107Z,5.00
2019-02-15T16:52:54.405Z,4.47
2019-02-15T16:55:27.101Z,4.60
2019-02-15T16:58:00.738Z,4.40
2019-02-15T17:00:30.612Z,4.80
2019-02-15T17:02:59.771Z,4.40
2019-02-15T17:05:29.896Z,4.70
2019-02-15T17:08:01.956Z,4.50
2019-02-15T17:10:31.354Z,5.43
2019-02-15T17:13:01.434Z,5.70
2019-02-15T17:15:34.825Z,5.70
2019-02-15T17:18:07.079Z,5.40
2019-02-15T17:20:38.693Z,5.00
2019-02-15T17:23:09.026Z,5.00
2019-02-15T17:25:41.304Z,5.50
2019-02-15T17:28:13.311Z,5.80
2019-02-15T17:30:43.859Z,5.30
2019-02-15T17:33:12.620Z,5.27
2019-02-15T17:35:42.036Z,5.43
2019-02-15T17:38:13.155Z,5.50
2019-02-15T17:40:44.093Z,4.70
2019-02-15T17:43:14.906Z,5.07
2019-02-15T17:45:44.853Z,6.20
2019-02-15T17:48:14.209Z,5.90
2019-02-15T17:50:44.834Z,6.00
2019-02-15T17:53:16.543Z,5.13
2019-02-15T17:55:44.976Z,5.43
2019-02-15T17:58:13.910Z,5.10
2019-02-15T18:00:45.256Z,5.50
2019-02-15T18:03:21.748Z,5.73
2019-02-15T18:05:51.359Z,5.10
2019-02-15T18:08:23.540Z,5.47
2019-02-15T18:10:51.997Z,4.57
2019-02-15T18:13:21.807Z,5.10
2019-02-15T18:15:53.771Z,5.03
2019-02-15T18:18:27.134Z,5.20
2019-02-15T18:20:57.622Z,5.30
2019-02-15T18:23:29.289Z,5.23
2019-02-15T18:26:02.278Z,5.40
2019-02-15T18:28:32.236Z,5.70
2019-02-15T18:31:05.497Z,5.60
2019-02-15T18:33:37.001Z,5.17
2019-02-15T18:36:10.567Z,5.13
2019-02-15T18:38:41.059Z,5.40
2019-02-15T18:41:13.782Z,5.77
2019-02-15T18:43:41.953Z,6.33
2019-02-15T18:46:10.400Z,5.77
2019-02-15T18:48:43.077Z,5.33
2019-02-15T18:51:12.493Z,5.90
2019-02-15T18:53:42.901Z,5.77
2019-02-15T18:56:13.282Z,5.80
2019-02-15T18:58:41.702Z,6.20
2019-02-15T19:01:13.273Z,5.23
2019-02-15T19:03:42.039Z,5.80
2019-02-15T19:06:14.000Z,5.17
2019-02-15T19:08:44.060Z,6.60
2019-02-15T19:11:18.304Z,5.97
2019-02-15T19:13:48.227Z,5.40
2019-02-15T19:16:18.546Z,5.33
2019-02-15T19:18:48.271Z,5.10
2019-02-15T19:21:18.424Z,5.37
2019-02-15T19:23:50.412Z,4.80
2019-02-15T19:29:11.370Z,4.80
2019-02-15T19:31:41.051Z,5.17
2019-02-15T19:34:20.728Z,4.83
2019-02-15T19:36:51.218Z,5.23
2019-02-15T19:39:20.178Z,5.33
2019-02-15T19:41:51.405Z,4.90
2019-02-15T19:44:19.824Z,4.73
2019-02-15T19:46:50.099Z,5.03
2019-02-15T19:49:19.361Z,4.90
2019-02-15T19:51:49.386Z,5.13
2019-02-15T19:54:17.793Z,4.57
2019-02-15T19:56:48.261Z,4.10
2019-02-15T19:59:18.558Z,4.73
2019-02-15T20:01:48.166Z,4.70
2019-02-15T20:04:17.123Z,4.53
2019-02-15T20:06:48.205Z,5.10
2019-02-15T20:09:16.831Z,4.67
2019-02-15T20:11:45.244Z,5.20
2019-02-15T20:14:15.912Z,5.10
2019-02-15T20:16:46.740Z,4.87
2019-02-15T20:19:17.206Z,4.23
2019-02-15T20:21:45.616Z,4.63
2019-02-15T20:24:15.354Z,4.23
2019-02-15T20:26:43.780Z,3.90
2019-02-15T20:29:18.532Z,4.63
2019-02-15T20:31:49.497Z,4.90
2019-02-15T20:34:19.869Z,4.50
2019-02-15T20:36:50.008Z,5.57
2019-02-15T20:39:23.333Z,6.10
2019-02-15T20:42:02.405Z,5.17
2019-02-15T20:44:32.870Z,5.07
2019-02-15T20:47:03.915Z,5.07
2019-02-15T20:49:37.007Z,6.30
2019-02-15T20:52:08.066Z,5.40
2019-02-15T20:54:41.147Z,6.60
2019-02-15T20:57:10.600Z,5.40
2019-02-15T20:59:40.245Z,7.00
2019-02-15T21:02:14.339Z,5.20
2019-02-15T21:04:43.508Z,5.73
2019-02-15T21:07:12.307Z,4.73
2019-02-15T21:09:43.325Z,4.47
2019-02-15T21:12:13.323Z,5.10
2019-02-15T21:14:42.042Z,5.43
2019-02-15T21:17:13.404Z,5.73
2019-02-15T21:19:43.816Z,5.00
2019-02-15T21:22:14.356Z,6.03
2019-02-15T21:24:44.501Z,6.17
2019-02-15T21:27:14.879Z,5.50
2019-02-15T21:29:45.181Z,6.63
2019-02-15T21:32:17.158Z,6.60
2019-02-15T21:34:45.783Z,5.87
2019-02-15T21:37:15.231Z,6.87
2019-02-15T21:39:43.680Z,6.00
2019-02-15T21:42:16.296Z,5.30
2019-02-15T21:44:45.978Z,7.10
2019-02-15T21:47:16.367Z,7.83
2019-02-15T21:49:51.514Z,7.37
2019-02-15T21:52:21.941Z,6.90
2019-02-15T21:54:50.617Z,6.87
2019-02-15T21:57:19.041Z,7.17
2019-02-15T21:59:52.109Z,7.10
2019-02-15T22:02:22.082Z,7.47
2019-02-15T22:04:51.456Z,7.20
2019-02-15T22:07:23.705Z,6.17
2019-02-15T22:09:53.081Z,5.80
2019-02-15T22:12:26.368Z,7.47
2019-02-15T22:14:59.144Z,7.50
2019-02-15T22:17:31.633Z,7.80
2019-02-15T22:20:00.428Z,6.33
2019-02-15T22:22:29.781Z,7.13
2019-02-15T22:24:58.226Z,6.80
2019-02-15T22:27:29.643Z,6.17
2019-02-15T22:29:58.622Z,6.83
2019-02-15T22:32:29.952Z,8.00
2019-02-15T22:35:02.068Z,6.90
2019-02-15T22:37:31.974Z,6.80
2019-02-15T22:40:05.325Z,6.97
2019-02-15T22:42:36.876Z,6.73
2019-02-15T22:45:08.958Z,6.93
2019-02-15T22:47:41.010Z,7.47
2019-02-15T22:50:15.434Z,6.83
2019-02-15T22:52:44.254Z,7.30
2019-02-15T22:55:17.687Z,7.90
2019-02-15T22:57:46.111Z,9.60
2019-02-15T23:00:23.596Z,10.13
2019-02-15T23:02:52.090Z,9.60
2019-02-15T23:05:20.598Z,9.70
2019-02-15T23:07:49.016Z,8.67
2019-02-15T23:10:17.468Z,8.90
2019-02-15T23:12:45.891Z,8.47
2019-02-15T23:15:14.418Z,8.40
2019-02-15T23:17:42.908Z,8.90
2019-02-15T23:20:11.429Z,9.10
2019-02-15T23:22:39.839Z,7.67
2019-02-15T23:25:08.450Z,7.53
2019-02-15T23:27:36.871Z,7.23
2019-02-15T23:30:07.474Z,7.97
2019-02-15T23:32:35.901Z,8.00
2019-02-15T23:35:04.982Z,7.33
2019-02-15T23:37:33.401Z,6.97
2019-02-15T23:40:01.846Z,6.80
2019-02-15T23:42:30.265Z,7.00
2019-02-15T23:44:58.714Z,7.13
2019-02-15T23:47:27.132Z,7.20
2019-02-15T23:49:55.557Z,7.50
2019-02-15T23:52:23.999Z,7.07
2019-02-15T23:54:52.410Z,6.80
2019-02-15T23:57:20.862Z,6.73
2019-02-15T23:59:49.273Z,6.63
